Time;durP1;ratioP1;P1;durP2;ratioP2;P2;SDS_P1;SDS_P2;PMS_P1;PMS_P2;Temp;Humidity;BMP_temperature;BMP_pressure;BME280_temperature;BME280_humidity;BME280_pressure;Samples;Min_cycle;Max_cycle;Signal;HPM_P1;HPM_P2
2023/02/03 05:43:15;;;;;;;;;0.50;0.50;;;;;9.30;100.00;103123.97;5616382;23;49777;-71
2023/02/03 05:45:40;;;;;;;;;1.25;0.75;;;;;8.48;100.00;102933.59;4930631;28;49744;-72
2023/02/03 05:48:06;;;;;;;;;1.00;1.00;;;;;9.85;100.00;103193.91;4929425;28;49765;-67
2023/02/03 05:50:32;;;;;;;;;1.00;1.00;;;;;9.33;100.00;103106.69;4928782;28;50041;-67
2023/02/03 05:53:02;;;;;;;;;1.00;1.00;;;;;8.86;100.00;103006.75;4928595;28;50615;-67
2023/02/03 05:55:28;;;;;;;;;1.00;1.00;;;;;9.52;100.00;103119.25;4933005;28;49744;-64
2023/02/03 05:57:55;;;;;;;;;1.75;1.00;;;;;9.52;100.00;103126.22;4944147;28;49631;-72
2023/02/03 06:00:21;;;;;;;;;1.00;0.00;;;;;8.56;100.00;103021.41;4937274;28;50033;-72
2023/02/03 06:02:55;;;;;;;;;0.00;0.00;;;;;9.82;100.00;103213.78;4932066;28;51150;-74
2023/02/03 06:05:21;;;;;;;;;0.00;0.00;;;;;9.26;100.00;103098.34;4934891;28;49801;-66
2023/02/03 06:07:47;;;;;;;;;0.00;0.00;;;;;9.37;100.00;103113.97;4932868;28;49821;-65
2023/02/03 06:10:13;;;;;;;;;0.75;0.75;;;;;9.70;100.00;103164.09;4935821;28;49855;-65
2023/02/03 06:12:39;;;;;;;;;0.00;0.00;;;;;9.58;100.00;103142.34;4935147;28;50898;-66
2023/02/03 06:15:05;;;;;;;;;1.75;1.75;;;;;8.90;100.00;103027.09;4934800;28;49717;-67
2023/02/03 06:17:30;;;;;;;;;0.75;0.00;;;;;8.94;100.00;103034.34;4935952;28;49874;-68
2023/02/03 06:19:56;;;;;;;;;0.00;0.00;;;;;9.31;100.00;103112.66;4935761;28;49704;-69
2023/02/03 06:22:22;;;;;;;;;0.00;0.00;;;;;9.36;100.00;103125.28;4937084;28;50785;-69
2023/02/03 06:24:47;;;;;;;;;0.00;0.00;;;;;9.18;100.00;103101.41;4935621;28;49873;-69
2023/02/03 06:27:14;;;;;;;;;1.00;1.00;;;;;8.85;100.00;103079.19;4934698;28;49861;-69
2023/02/03 06:29:40;;;;;;;;;1.00;1.00;;;;;9.29;100.00;103151.00;4935356;28;49568;-69
2023/02/03 06:32:06;;;;;;;;;0.00;0.00;;;;;8.77;100.00;103046.34;4934831;28;49880;-69
2023/02/03 06:34:32;;;;;;;;;0.75;0.75;;;;;8.83;100.00;103064.19;4935074;28;49873;-70
2023/02/03 06:36:57;;;;;;;;;1.00;1.00;;;;;9.13;100.00;103128.13;4935382;28;49843;-68
2023/02/03 06:39:22;;;;;;;;;1.25;1.00;;;;;9.21;100.00;103144.34;4935093;28;49783;-68
2023/02/03 06:41:50;;;;;;;;;2.00;2.00;;;;;8.80;100.00;103082.34;4931436;28;50012;-69
2023/02/03 06:44:15;;;;;;;;;2.00;2.00;;;;;9.47;100.00;103196.75;4934330;28;49754;-70
2023/02/03 06:46:40;;;;;;;;;1.00;1.00;;;;;9.13;100.00;103136.88;4934384;28;49883;-68
2023/02/03 06:49:06;;;;;;;;;2.25;1.00;;;;;9.37;100.00;103186.47;4925492;28;49802;-67
2023/02/03 06:51:31;;;;;;;;;2.00;2.00;;;;;9.42;100.00;103177.16;4946913;28;50619;-67
2023/02/03 06:53:57;;;;;;;;;1.75;1.75;;;;;9.09;100.00;103116.56;4935210;28;49718;-65
2023/02/03 06:56:23;;;;;;;;;2.00;0.50;;;;;9.33;100.00;103167.00;4936376;28;49742;-67
2023/02/03 06:58:48;;;;;;;;;1.00;1.00;;;;;9.26;100.00;103146.44;4931376;28;50097;-61
2023/02/03 07:01:13;;;;;;;;;2.00;2.00;;;;;8.92;100.00;103088.34;4927807;28;50522;-66
2023/02/03 07:03:39;;;;;;;;;1.00;1.00;;;;;9.41;100.00;103201.56;4935697;28;49778;-66
2023/02/03 07:06:05;;;;;;;;;1.00;1.00;;;;;9.21;100.00;103141.72;4934925;28;49941;-67
2023/02/03 07:08:30;;;;;;;;;1.50;0.75;;;;;8.77;100.00;103077.78;4934228;28;49885;-67
2023/02/03 07:10:56;;;;;;;;;1.25;1.25;;;;;9.08;100.00;103137.41;4933598;28;49953;-69
2023/02/03 07:13:21;;;;;;;;;1.50;1.50;;;;;9.36;100.00;103203.91;4933584;28;50318;-68
2023/02/03 07:15:46;;;;;;;;;2.00;2.00;;;;;9.46;100.00;103222.06;4934399;28;49846;-66
2023/02/03 07:18:12;;;;;;;;;1.50;1.50;;;;;9.21;100.00;103162.69;4934331;28;49627;-66
2023/02/03 07:20:37;;;;;;;;;2.25;2.25;;;;;8.71;100.00;103087.88;4931241;28;51506;-68
2023/02/03 07:23:05;;;;;;;;;1.75;1.75;;;;;8.24;100.00;102995.72;4930780;28;49951;-64
2023/02/03 07:25:31;;;;;;;;;1.50;1.50;;;;;9.32;100.00;103200.97;4932918;28;49552;-68
2023/02/03 07:27:56;;;;;;;;;2.00;2.00;;;;;9.24;100.00;103163.78;4934342;28;49787;-65
2023/02/03 07:30:21;;;;;;;;;6.75;1.00;;;;;8.63;100.00;103041.94;4934299;28;50832;-65
2023/02/03 07:32:49;;;;;;;;;1.75;1.75;;;;;9.50;100.00;103210.03;4934109;28;49881;-66
2023/02/03 07:35:15;;;;;;;;;1.00;1.00;;;;;9.53;100.00;103209.31;4934169;28;49813;-65
2023/02/03 07:37:41;;;;;;;;;1.00;1.00;;;;;9.05;100.00;103145.97;4933560;28;50055;-65
2023/02/03 07:40:07;;;;;;;;;1.75;1.75;;;;;9.54;100.00;103222.50;4933899;28;49814;-65
2023/02/03 07:42:32;;;;;;;;;1.75;1.00;;;;;8.90;100.00;103097.84;4933455;28;49954;-65
2023/02/03 07:44:57;;;;;;;;;1.00;1.00;;;;;8.56;100.00;103035.41;4933833;28;49042;-65
2023/02/03 07:47:23;;;;;;;;;1.25;1.00;;;;;9.53;100.00;103202.34;4934309;28;49817;-66
2023/02/03 07:49:48;;;;;;;;;4.00;1.75;;;;;9.58;100.00;103200.94;4933944;28;51144;-65
2023/02/03 07:52:13;;;;;;;;;0.50;0.50;;;;;8.83;100.00;103072.03;4933974;28;49725;-65
2023/02/03 07:54:39;;;;;;;;;2.00;2.00;;;;;9.41;100.00;103177.97;4934237;28;49647;-65
2023/02/03 07:57:04;;;;;;;;;2.00;1.00;;;;;9.10;100.00;103125.31;4927787;28;50449;-65
2023/02/03 07:59:29;;;;;;;;;1.75;1.75;;;;;9.50;100.00;103196.91;4933734;28;51142;-66
2023/02/03 08:01:55;;;;;;;;;5.50;1.75;;;;;8.87;100.00;103088.03;4933136;28;49818;-66
2023/02/03 08:04:21;;;;;;;;;2.50;2.50;;;;;9.76;100.00;103243.19;4933596;28;50006;-65
2023/02/03 08:06:47;;;;;;;;;2.00;2.00;;;;;9.57;100.00;103199.13;4933921;28;49733;-66
2023/02/03 08:09:12;;;;;;;;;1.75;1.00;;;;;9.53;100.00;103207.59;4933425;28;50988;-65
2023/02/03 08:11:37;;;;;;;;;2.75;1.00;;;;;9.70;100.00;103225.31;4933062;28;49839;-65
2023/02/03 08:14:03;;;;;;;;;3.00;1.75;;;;;9.92;100.00;103245.03;4933831;28;49771;-65
2023/02/03 08:16:29;;;;;;;;;4.00;3.00;;;;;9.96;100.00;103254.94;4933717;28;49754;-66
2023/02/03 08:18:54;;;;;;;;;1.25;1.25;;;;;9.83;100.00;103236.56;4933029;28;50520;-66
2023/02/03 08:21:20;;;;;;;;;0.75;0.50;;;;;9.92;100.00;103234.53;4933430;28;49665;-65
2023/02/03 08:23:45;;;;;;;;;3.00;3.00;;;;;9.18;100.00;103140.72;4933185;28;49974;-65
2023/02/03 08:26:10;;;;;;;;;3.25;1.25;;;;;9.14;100.00;103090.63;4932961;28;50062;-66
2023/02/03 08:28:36;;;;;;;;;2.50;2.00;;;;;9.62;100.00;103167.94;4932383;28;49789;-71
2023/02/03 08:31:01;;;;;;;;;1.75;1.75;;;;;10.22;100.00;103274.94;4931254;28;49859;-67
2023/02/03 08:33:27;;;;;;;;;0.00;0.00;;;;;9.84;100.00;103180.66;4932947;28;50027;-68
2023/02/03 08:35:53;;;;;;;;;1.25;1.25;;;;;10.08;100.00;103225.91;4932996;28;49817;-65
2023/02/03 08:38:20;;;;;;;;;0.75;0.75;;;;;10.36;100.00;103252.19;4932241;28;49788;-68
2023/02/03 08:40:46;;;;;;;;;0.75;0.75;;;;;10.33;100.00;103255.53;4933057;28;49673;-67
2023/02/03 08:43:11;;;;;;;;;2.00;2.00;;;;;10.49;100.00;103259.97;4932902;28;49998;-66
2023/02/03 08:45:39;;;;;;;;;0.75;0.75;;;;;9.94;100.00;103155.13;4935488;28;49567;-69
2023/02/03 08:48:04;;;;;;;;;1.00;1.00;;;;;10.38;100.00;103258.44;4932576;28;49978;-67
2023/02/03 08:50:30;;;;;;;;;2.25;0.75;;;;;10.47;100.00;103256.38;4932464;28;49710;-69
2023/02/03 08:52:55;;;;;;;;;2.00;2.00;;;;;10.35;100.00;103253.00;4931601;28;50131;-72
2023/02/03 08:55:20;;;;;;;;;0.75;0.75;;;;;10.43;100.00;103247.41;4932449;28;49794;-72
2023/02/03 08:57:46;;;;;;;;;2.00;2.00;;;;;9.55;100.00;103108.94;4932026;28;49969;-70
2023/02/03 09:00:12;;;;;;;;;2.25;2.25;;;;;10.24;100.00;103247.09;4932915;28;50020;-68
2023/02/03 09:02:37;;;;;;;;;1.75;1.75;;;;;10.36;100.00;103242.59;4932970;28;50135;-68
2023/02/03 09:05:03;;;;;;;;;1.00;1.00;;;;;10.03;100.00;103184.53;4932637;28;49798;-68
2023/02/03 09:07:28;;;;;;;;;2.25;1.25;;;;;10.27;100.00;103221.00;4932424;28;51421;-69
2023/02/03 09:09:53;;;;;;;;;1.00;1.00;;;;;10.59;100.00;103275.47;4932306;28;49715;-68
2023/02/03 09:12:19;;;;;;;;;0.25;0.25;;;;;10.29;100.00;103222.00;4932365;28;49810;-70
2023/02/03 09:14:44;;;;;;;;;2.25;2.00;;;;;10.34;100.00;103214.44;4932780;28;49934;-68
2023/02/03 09:17:10;;;;;;;;;1.50;1.50;;;;;10.16;100.00;103187.94;4932486;28;50487;-68
2023/02/03 09:19:35;;;;;;;;;1.00;1.00;;;;;10.24;100.00;103192.88;4931187;28;50008;-68
2023/02/03 09:22:00;;;;;;;;;2.00;2.00;;;;;9.44;100.00;103068.06;4932454;28;49684;-69
2023/02/03 09:24:26;;;;;;;;;1.75;1.50;;;;;10.46;100.00;103226.56;4932556;28;49853;-68
2023/02/03 09:26:51;;;;;;;;;2.00;2.00;;;;;10.81;100.00;103281.25;4932010;28;49874;-70
2023/02/03 09:29:18;;;;;;;;;3.00;2.25;;;;;10.86;100.00;103276.25;4932617;28;49715;-70
2023/02/03 09:31:45;;;;;;;;;3.00;3.00;;;;;10.24;100.00;103182.38;4926313;28;49596;-69
2023/02/03 09:34:12;;;;;;;;;3.25;3.25;;;;;10.44;100.00;103203.66;4932706;28;49951;-68
2023/02/03 09:36:37;;;;;;;;;1.00;1.00;;;;;10.24;100.00;103164.00;4932270;28;49963;-68
2023/02/03 09:39:02;;;;;;;;;1.50;1.50;;;;;10.90;100.00;103272.97;4932234;28;49951;-68
2023/02/03 09:41:46;;;;;;;;;2.00;2.00;;;;;11.01;100.00;103297.28;4930695;28;49884;-68
2023/02/03 09:44:17;;;;;;;;;3.75;2.00;;;;;10.86;100.00;103258.75;4931572;28;49834;-68
2023/02/03 09:46:47;;;;;;;;;3.00;3.00;;;;;10.76;100.00;103239.72;4932202;28;49930;-68
2023/02/03 09:49:21;;;;;;;;;2.75;2.75;;;;;11.25;100.00;103303.97;4931790;28;49784;-68
2023/02/03 09:52:16;;;;;;;;;3.00;2.00;;;;;10.96;100.00;103251.41;4932284;28;49749;-69
2023/02/03 09:54:46;;;;;;;;;2.00;2.00;;;;;11.24;100.00;103290.75;4923062;28;50079;-69
2023/02/03 09:57:27;;;;;;;;;2.50;2.50;;;;;10.82;100.00;103226.97;4930503;28;51493;-69
2023/02/03 09:59:55;;;;;;;;;6.00;4.00;;;;;11.23;100.00;103265.25;4927270;28;49795;-69
2023/02/03 10:02:24;;;;;;;;;3.50;2.00;;;;;11.57;100.00;103310.19;4932173;28;49814;-68
2023/02/03 10:05:22;;;;;;;;;3.00;3.00;;;;;11.64;100.00;103300.09;4932522;28;49599;-69
2023/02/03 10:08:02;;;;;;;;;4.75;2.50;;;;;11.77;100.00;103309.56;4930286;28;49914;-69
2023/02/03 10:10:40;;;;;;;;;2.75;2.75;;;;;11.76;100.00;103320.94;4931953;28;49821;-68
2023/02/03 10:13:23;;;;;;;;;2.00;2.00;;;;;11.77;100.00;103317.47;4931610;28;49956;-68
2023/02/03 10:15:59;;;;;;;;;5.00;3.00;;;;;11.79;100.00;103315.84;4930913;28;49861;-69
2023/02/03 10:18:32;;;;;;;;;5.00;4.00;;;;;11.42;100.00;103257.63;4931898;28;50412;-69
2023/02/03 10:21:12;;;;;;;;;5.50;3.50;;;;;11.45;100.00;103228.84;4931954;28;49749;-69
2023/02/03 10:23:42;;;;;;;;;3.00;3.00;;;;;11.75;100.00;103271.75;4932000;28;49913;-69
2023/02/03 10:26:16;;;;;;;;;2.00;2.00;;;;;11.99;100.00;103319.63;4931671;28;49718;-68
2023/02/03 10:28:51;;;;;;;;;2.00;2.00;;;;;11.04;100.00;103177.44;4931608;28;50024;-68
2023/02/03 10:31:20;;;;;;;;;2.50;2.50;;;;;10.80;100.00;103084.97;4931863;28;49684;-68
2023/02/03 10:33:46;;;;;;;;;2.25;1.00;;;;;11.42;100.00;103194.50;4932028;28;49829;-69
2023/02/03 10:36:27;;;;;;;;;1.75;1.75;;;;;12.02;100.00;103309.28;4932244;28;49907;-68
2023/02/03 10:38:58;;;;;;;;;0.50;0.50;;;;;12.17;100.00;103312.75;4930490;28;51840;-68
2023/02/03 10:41:24;;;;;;;;;2.00;2.00;;;;;12.10;100.00;103286.91;4931298;28;50048;-68
2023/02/03 10:43:51;;;;;;;;;1.25;1.25;;;;;11.85;100.00;103231.09;4930129;28;49999;-69
2023/02/03 10:46:32;;;;;;;;;4.00;4.00;;;;;11.87;100.00;103232.06;4931581;28;50001;-68
2023/02/03 10:48:58;;;;;;;;;2.00;2.00;;;;;12.16;100.00;103288.94;4931260;28;49873;-68
2023/02/03 10:51:48;;;;;;;;;3.50;3.00;;;;;11.84;100.00;103235.44;4931279;28;50038;-68
2023/02/03 10:54:33;;;;;;;;;1.50;1.50;;;;;12.04;100.00;103261.13;4931895;28;49932;-68
2023/02/03 10:57:04;;;;;;;;;2.25;1.00;;;;;11.66;100.00;103177.41;4933198;28;50057;-68
2023/02/03 10:59:34;;;;;;;;;2.00;2.00;;;;;12.37;100.00;103300.66;4934581;28;49764;-68
2023/02/03 11:02:07;;;;;;;;;4.00;4.00;;;;;11.35;100.00;103143.25;4933220;28;49822;-68
2023/02/03 11:04:32;;;;;;;;;4.25;4.25;;;;;11.93;100.00;103243.84;4933514;28;49925;-68
2023/02/03 11:07:07;;;;;;;;;2.25;2.25;;;;;11.72;100.00;103187.38;4934015;28;49593;-69
2023/02/03 11:09:34;;;;;;;;;2.00;2.00;;;;;12.39;100.00;103299.00;4934340;28;50765;-69
2023/02/03 11:12:18;;;;;;;;;3.00;3.00;;;;;12.46;100.00;103298.53;4934153;28;49631;-69
2023/02/03 11:14:51;;;;;;;;;2.00;2.00;;;;;12.33;100.00;103269.69;4934383;28;49921;-69
2023/02/03 11:17:21;;;;;;;;;4.00;2.75;;;;;12.10;100.00;103241.25;4934645;28;49921;-69
2023/02/03 11:19:49;;;;;;;;;5.00;3.50;;;;;12.08;100.00;103228.00;4934251;28;50212;-68
2023/02/03 11:22:34;;;;;;;;;5.00;3.00;;;;;11.98;100.00;103199.38;4934496;28;49860;-69
2023/02/03 11:25:02;;;;;;;;;3.00;3.00;;;;;12.07;100.00;103220.94;4934446;28;49798;-69
2023/02/03 11:27:30;;;;;;;;;2.00;2.00;;;;;12.47;100.00;103267.81;4934075;28;49996;-68
2023/02/03 11:30:19;;;;;;;;;1.50;1.50;;;;;12.49;100.00;103298.69;4934101;28;50078;-68
2023/02/03 11:32:46;;;;;;;;;3.00;3.00;;;;;12.11;100.00;103193.94;4932948;28;49853;-69
2023/02/03 11:35:25;;;;;;;;;2.00;2.00;;;;;12.27;100.00;103203.56;4934168;28;49848;-68
2023/02/03 11:37:53;;;;;;;;;1.00;1.00;;;;;11.86;100.00;103149.56;4934152;28;49691;-69
2023/02/03 11:40:26;;;;;;;;;5.00;3.75;;;;;12.25;100.00;103213.97;4934055;28;51071;-69
2023/02/03 11:42:52;;;;;;;;;3.00;3.00;;;;;12.69;100.00;103291.81;4933615;28;50380;-68
2023/02/03 11:45:17;;;;;;;;;1.50;1.00;;;;;12.72;100.00;103294.59;4934054;28;49774;-72
2023/02/03 11:48:21;;;;;;;;;2.50;2.50;;;;;12.23;100.00;103210.38;4934294;28;50050;-67
2023/02/03 11:51:04;;;;;;;;;2.75;2.75;;;;;12.61;100.00;103293.16;4918673;28;49989;-68
2023/02/03 11:53:48;;;;;;;;;2.00;2.00;;;;;12.52;100.00;103274.22;4934015;28;49915;-68
2023/02/03 11:57:00;;;;;;;;;3.25;3.25;;;;;12.63;100.00;103291.50;4933558;28;49746;-70
2023/02/03 12:00:13;;;;;;;;;1.75;1.75;;;;;12.61;100.00;103288.78;4934297;28;50044;-68
2023/02/03 12:02:53;;;;;;;;;3.50;3.00;;;;;11.41;100.00;103083.13;4893109;28;49908;-69
2023/02/03 12:05:36;;;;;;;;;3.75;2.00;;;;;12.72;100.00;103272.63;4929352;28;49735;-69
2023/02/03 12:08:04;;;;;;;;;3.50;2.25;;;;;12.77;100.00;103272.06;4932196;28;49722;-69
2023/02/03 12:10:55;;;;;;;;;3.75;3.75;;;;;12.80;100.00;103264.28;4934178;28;49597;-70
2023/02/03 12:13:43;;;;;;;;;3.00;3.00;;;;;12.73;100.00;103275.34;4933430;28;51298;-70
2023/02/03 12:16:31;;;;;;;;;2.00;2.00;;;;;12.43;100.00;103221.94;4933289;28;49608;-70
2023/02/03 12:19:13;;;;;;;;;2.75;1.00;;;;;12.70;100.00;103262.00;4932917;28;50011;-69
2023/02/03 12:21:59;;;;;;;;;2.25;2.00;;;;;11.91;100.00;103100.72;4933859;28;49836;-70
2023/02/03 12:25:06;;;;;;;;;2.25;1.75;;;;;12.88;100.00;103246.25;4933334;28;50007;-69
2023/02/03 12:27:43;;;;;;;;;2.75;2.75;;;;;12.97;100.00;103244.06;4932220;28;49799;-68
2023/02/03 12:30:16;;;;;;;;;2.75;2.75;;;;;12.55;100.00;103162.00;4933375;28;49878;-68
2023/02/03 12:32:44;;;;;;;;;4.00;2.75;;;;;12.96;100.00;103234.34;4932118;28;49999;-68
2023/02/03 12:35:20;;;;;;;;;3.00;2.00;;;;;12.50;100.00;103173.13;4933176;28;49840;-70
2023/02/03 12:37:54;;;;;;;;;3.00;3.00;;;;;12.23;100.00;103117.28;4933110;28;49773;-69
2023/02/03 12:40:26;;;;;;;;;3.00;2.00;;;;;12.85;100.00;103227.63;4915949;28;49996;-69
2023/02/03 12:42:57;;;;;;;;;4.00;2.50;;;;;12.89;100.00;103209.41;4932835;28;49925;-70
2023/02/03 12:45:30;;;;;;;;;2.75;2.75;;;;;11.43;100.00;102976.28;4932965;28;51104;-69
2023/02/03 12:48:09;;;;;;;;;3.00;1.00;;;;;12.58;100.00;103163.88;4931766;28;49810;-68
2023/02/03 12:50:59;;;;;;;;;3.00;3.00;;;;;13.07;100.00;103227.88;4932788;28;50090;-68
2023/02/03 12:53:31;;;;;;;;;2.00;1.00;;;;;12.79;100.00;103169.31;4927661;28;50248;-71
2023/02/03 12:56:04;;;;;;;;;2.25;2.00;;;;;12.56;100.00;103124.28;4937444;28;49881;-66
2023/02/03 12:58:41;;;;;;;;;2.00;2.00;;;;;12.30;100.00;103090.44;4940811;28;49581;-69
2023/02/03 13:01:25;;;;;;;;;3.00;2.00;;;;;13.08;100.00;103216.50;4934246;28;49611;-67
2023/02/03 13:03:59;;;;;;;;;2.75;1.25;;;;;12.57;100.00;103128.72;4932998;28;49931;-65
2023/02/03 13:06:48;;;;;;;;;3.25;2.00;;;;;13.10;100.00;103214.84;4945237;28;49910;-70
2023/02/03 13:09:28;;;;;;;;;1.50;1.50;;;;;12.84;100.00;103154.66;4944733;28;50076;-70
2023/02/03 13:12:15;;;;;;;;;1.25;0.25;;;;;13.07;100.00;103216.44;4939560;28;49668;-70
2023/02/03 13:14:49;;;;;;;;;1.25;1.25;;;;;12.41;100.00;103097.16;4948794;28;49336;-66
2023/02/03 13:17:23;;;;;;;;;1.75;1.75;;;;;12.55;100.00;103133.03;4946754;28;50754;-66
2023/02/03 13:19:57;;;;;;;;;2.00;2.00;;;;;12.83;100.00;103161.63;4946829;28;49612;-64
2023/02/03 13:22:23;;;;;;;;;2.25;2.25;;;;;12.56;100.00;103121.66;4934433;28;50085;-66
2023/02/03 13:25:00;;;;;;;;;2.00;1.00;;;;;12.65;100.00;103167.75;4932056;28;49733;-66
2023/02/03 13:27:56;;;;;;;;;1.00;1.00;;;;;12.88;100.00;103189.13;4940112;28;49934;-67
2023/02/03 13:30:43;;;;;;;;;1.00;1.00;;;;;12.83;100.00;103197.63;4927563;28;49632;-64
2023/02/03 13:33:17;;;;;;;;;2.00;2.00;;;;;12.77;100.00;103192.97;4930355;28;49830;-64
2023/02/03 13:36:08;;;;;;;;;1.00;1.00;;;;;12.71;100.00;103192.66;4932330;28;50016;-65
2023/02/03 13:39:21;;;;;;;;;1.00;1.00;;;;;12.75;100.00;103185.81;4936584;28;50655;-65
2023/02/03 13:41:58;;;;;;;;;2.50;1.25;;;;;12.70;100.00;103169.75;4929551;28;49727;-66
2023/02/03 13:44:27;;;;;;;;;1.00;1.00;;;;;12.41;100.00;103126.13;4930885;28;49758;-64
2023/02/03 13:46:58;;;;;;;;;3.25;2.50;;;;;12.68;100.00;103215.31;4933091;28;49885;-64
2023/02/03 13:49:28;;;;;;;;;5.75;3.00;;;;;12.42;100.00;103138.47;4931136;28;50461;-64
2023/02/03 13:51:54;;;;;;;;;10.25;10.25;;;;;12.72;100.00;103190.91;4932910;28;49833;-65
2023/02/03 13:54:42;;;;;;;;;15.75;14.25;;;;;12.75;100.00;103185.81;4931364;28;49989;-68
2023/02/03 13:57:27;;;;;;;;;12.00;10.50;;;;;12.84;100.00;103183.66;4935108;28;49846;-69
2023/02/03 13:59:52;;;;;;;;;8.00;8.00;;;;;12.59;100.00;103126.16;4926993;28;50061;-68
2023/02/03 14:02:17;;;;;;;;;7.00;7.00;;;;;12.98;100.00;103182.59;4930115;28;49779;-64
2023/02/03 14:04:46;;;;;;;;;5.00;3.75;;;;;12.83;100.00;103156.34;4931244;28;49666;-64
2023/02/03 14:07:34;;;;;;;;;4.00;4.00;;;;;13.02;100.00;103188.91;4932144;28;49849;-64
2023/02/03 14:10:14;;;;;;;;;4.00;3.00;;;;;13.01;100.00;103187.09;4928284;28;51155;-63
2023/02/03 14:12:48;;;;;;;;;2.00;2.00;;;;;13.04;100.00;103189.91;4930556;28;49766;-64
2023/02/03 14:15:32;;;;;;;;;9.00;5.25;;;;;13.00;100.00;103185.28;4930933;28;50001;-64
2023/02/03 14:18:29;;;;;;;;;4.00;4.00;;;;;12.50;100.00;103121.34;4930824;28;50693;-63
2023/02/03 14:21:09;;;;;;;;;4.00;1.75;;;;;12.67;100.00;103145.91;4928378;28;49813;-63
2023/02/03 14:23:42;;;;;;;;;4.00;2.25;;;;;12.21;100.00;103068.91;4927437;28;50055;-65
2023/02/03 14:26:31;;;;;;;;;3.75;2.75;;;;;12.93;100.00;103183.19;4930447;28;50113;-66
2023/02/03 14:28:57;;;;;;;;;1.50;1.50;;;;;12.96;100.00;103186.88;4928765;28;49941;-65
2023/02/03 14:31:25;;;;;;;;;4.00;2.75;;;;;12.72;100.00;103127.66;4934060;28;50657;-64
2023/02/03 14:33:56;;;;;;;;;3.00;3.00;;;;;13.04;100.00;103182.00;4934943;28;49950;-68
2023/02/03 14:36:47;;;;;;;;;1.00;1.00;;;;;13.03;100.00;103193.38;4933075;28;49786;-68
2023/02/03 14:39:16;;;;;;;;;1.50;1.50;;;;;13.06;100.00;103194.44;4926013;28;50112;-69
2023/02/03 14:41:44;;;;;;;;;3.00;2.00;;;;;13.08;100.00;103190.13;4933689;28;49785;-64
2023/02/03 14:44:13;;;;;;;;;2.25;2.25;;;;;13.08;100.00;103190.13;4934019;28;49947;-67
2023/02/03 14:46:57;;;;;;;;;2.00;2.00;;;;;13.08;100.00;103194.50;4933970;28;50255;-71
2023/02/03 14:49:51;;;;;;;;;1.00;1.00;;;;;13.06;100.00;103194.44;4934055;28;50355;-64
2023/02/03 14:52:16;;;;;;;;;3.00;2.00;;;;;13.05;100.00;103179.44;4934196;28;49720;-68
2023/02/03 14:55:08;;;;;;;;;3.00;3.00;;;;;12.99;100.00;103189.66;4932848;28;49690;-71
2023/02/03 14:57:47;;;;;;;;;3.25;2.00;;;;;12.88;100.00;103185.59;4926648;28;49976;-69
2023/02/03 15:00:19;;;;;;;;;2.00;2.00;;;;;12.88;100.00;103193.50;4933273;28;49987;-67
2023/02/03 15:03:08;;;;;;;;;2.25;1.25;;;;;12.82;100.00;103202.00;4932344;28;51832;-64
2023/02/03 15:05:45;;;;;;;;;3.75;3.75;;;;;12.85;100.00;103214.47;4933854;28;49764;-64
2023/02/03 15:08:32;;;;;;;;;4.00;3.00;;;;;12.82;100.00;103211.66;4934800;28;50379;-69
2023/02/03 15:10:57;;;;;;;;;4.50;3.25;;;;;12.46;100.00;103168.53;4934717;28;49725;-64
2023/02/03 15:13:28;;;;;;;;;2.50;2.50;;;;;12.50;100.00;103178.38;4932616;28;51612;-64
2023/02/03 15:15:59;;;;;;;;;3.00;3.00;;;;;11.88;100.00;103068.09;4934252;28;49864;-64
2023/02/03 15:18:31;;;;;;;;;3.00;3.00;;;;;12.68;100.00;103217.97;4934157;28;49581;-64
2023/02/03 15:20:57;;;;;;;;;3.00;3.00;;;;;12.40;100.00;103152.41;4934359;28;49989;-64
2023/02/03 15:23:28;;;;;;;;;2.00;2.00;;;;;12.46;100.00;103169.44;4934235;28;49780;-64
2023/02/03 15:25:56;;;;;;;;;1.25;1.25;;;;;12.64;100.00;103214.25;4934292;28;49728;-65
2023/02/03 15:28:23;;;;;;;;;2.50;2.00;;;;;12.59;100.00;103221.94;4933927;28;49817;-64
2023/02/03 15:31:20;;;;;;;;;2.25;2.25;;;;;12.68;100.00;103229.41;4934569;28;49953;-64
2023/02/03 15:33:48;;;;;;;;;4.25;2.00;;;;;11.88;100.00;103090.06;4932259;28;50851;-64
2023/02/03 15:36:29;;;;;;;;;2.75;2.75;;;;;12.66;100.00;103220.53;4934197;28;49939;-65
2023/02/03 15:39:05;;;;;;;;;2.75;2.75;;;;;12.49;100.00;103189.75;4933481;28;49668;-65
2023/02/03 15:41:31;;;;;;;;;3.50;3.00;;;;;12.56;100.00;103203.34;4930227;28;49910;-64
2023/02/03 15:44:02;;;;;;;;;3.25;3.00;;;;;12.62;100.00;103218.53;4933572;28;49946;-70
2023/02/03 15:46:34;;;;;;;;;5.00;4.00;;;;;12.62;100.00;103221.16;4935168;28;49943;-70
2023/02/03 15:49:21;;;;;;;;;2.25;2.25;;;;;12.03;100.00;103124.16;4933954;28;49966;-69
2023/02/03 15:51:51;;;;;;;;;4.00;4.00;;;;;11.89;100.00;103094.50;4933891;28;50019;-70
2023/02/03 15:54:19;;;;;;;;;2.00;2.00;;;;;11.96;100.00;103120.28;4932066;28;51620;-69
2023/02/03 15:56:56;;;;;;;;;5.00;3.00;;;;;12.38;100.00;103183.03;4926859;28;49813;-70
2023/02/03 15:59:29;;;;;;;;;2.75;2.75;;;;;12.21;100.00;103177.78;4933203;28;49801;-66
2023/02/03 16:01:55;;;;;;;;;6.25;4.50;;;;;12.10;100.00;103149.09;4933766;28;49929;-64
2023/02/03 16:04:24;;;;;;;;;4.75;4.75;;;;;12.54;100.00;103239.22;4936120;28;49946;-64
2023/02/03 16:06:52;;;;;;;;;6.00;6.00;;;;;12.29;100.00;103204.53;4933283;28;49778;-64
2023/02/03 16:09:33;;;;;;;;;8.50;6.00;;;;;12.41;100.00;103236.78;4935540;28;49841;-69
2023/02/03 16:12:16;;;;;;;;;5.00;5.00;;;;;12.43;100.00;103236.84;4934835;28;49838;-68
2023/02/03 16:14:42;;;;;;;;;3.00;3.00;;;;;12.36;100.00;103225.09;4933451;28;52237;-65
2023/02/03 16:17:22;;;;;;;;;5.50;5.50;;;;;12.55;100.00;103250.69;4937508;28;49677;-64
2023/02/03 16:19:50;;;;;;;;;3.75;3.75;;;;;12.54;100.00;103249.75;4934121;28;49725;-64
2023/02/03 16:22:46;;;;;;;;;4.75;4.00;;;;;12.42;100.00;103228.03;4933134;28;49896;-76
2023/02/03 16:25:24;;;;;;;;;5.50;5.50;;;;;12.53;100.00;103245.31;4915851;28;49851;-75
2023/02/03 16:53:03;;;;;;;;;4.75;1.75;;;;;12.11;100.00;103221.97;4932759;28;49744;-67
2023/02/03 16:55:29;;;;;;;;;5.00;5.00;;;;;12.37;100.00;103279.59;4931654;28;49699;-66
2023/02/03 16:57:54;;;;;;;;;4.75;4.25;;;;;12.36;100.00;103269.88;4932088;28;50494;-63
2023/02/03 17:00:23;;;;;;;;;3.25;3.25;;;;;11.99;100.00;103201.19;4936894;28;49787;-66
2023/02/03 17:02:50;;;;;;;;;6.75;6.00;;;;;12.36;100.00;103274.25;4938386;28;49749;-65
2023/02/03 17:05:16;;;;;;;;;3.75;3.25;;;;;12.26;100.00;103259.69;4937348;28;49777;-64
2023/02/03 17:07:42;;;;;;;;;3.75;3.75;;;;;12.08;100.00;103238.53;4937362;28;49758;-63
2023/02/03 17:10:08;;;;;;;;;4.75;3.00;;;;;11.30;100.00;103120.19;4936010;28;49659;-69
2023/02/03 17:12:33;;;;;;;;;7.50;5.50;;;;;12.23;100.00;103257.75;4932605;28;49702;-64
2023/02/03 17:14:59;;;;;;;;;7.75;5.75;;;;;12.07;100.00;103227.91;4932884;28;49785;-64
2023/02/03 17:17:24;;;;;;;;;8.00;6.25;;;;;12.04;100.00;103219.00;4938369;28;63601;-65
2023/02/03 17:19:50;;;;;;;;;5.00;5.00;;;;;12.12;100.00;103250.13;4930817;28;49915;-65
2023/02/03 17:22:15;;;;;;;;;4.75;4.75;;;;;12.27;100.00;103270.28;4933658;28;49816;-66
2023/02/03 17:24:40;;;;;;;;;3.75;3.00;;;;;12.20;100.00;103256.72;4932332;28;49645;-65
2023/02/03 17:27:06;;;;;;;;;8.25;7.25;;;;;12.10;100.00;103250.03;4931724;28;50516;-65
2023/02/03 17:29:31;;;;;;;;;6.50;6.50;;;;;12.20;100.00;103260.25;4932407;28;49710;-64
2023/02/03 17:31:56;;;;;;;;;6.50;4.00;;;;;12.07;100.00;103243.72;4932277;28;49765;-77
2023/02/03 17:34:22;;;;;;;;;8.75;7.50;;;;;12.04;100.00;103236.53;4933448;28;50010;-64
2023/02/03 17:36:47;;;;;;;;;8.00;8.00;;;;;12.18;100.00;103256.63;4930361;28;50038;-70
2023/02/03 17:39:13;;;;;;;;;11.75;8.75;;;;;12.02;100.00;103228.56;4932064;28;49884;-66
2023/02/03 17:41:38;;;;;;;;;9.00;9.00;;;;;11.97;100.00;103223.88;4931961;28;49971;-67
2023/02/03 17:44:04;;;;;;;;;10.75;8.50;;;;;11.86;100.00;103223.28;4932341;28;49790;-72
2023/02/03 17:46:29;;;;;;;;;14.00;9.25;;;;;11.97;100.00;103263.38;4932290;28;49901;-66
2023/02/03 17:48:57;;;;;;;;;8.00;8.00;;;;;12.10;100.00;103273.75;4931759;28;49785;-66